Time;durP1;ratioP1;P1;durP2;ratioP2;P2;SDS_P1;SDS_P2;PMS_P1;PMS_P2;Temp;Humidity;BMP_temperature;BMP_pressure;BME280_temperature;BME280_humidity;BME280_pressure;Samples;Min_cycle;Max_cycle;Signal;HPM_P1;HPM_P2
2022/07/05 00:00:21;;;;;;;10.20;3.35;;;;;;;20.25;48.42;102159.63;5212285;28;20496;-40
2022/07/05 00:02:55;;;;;;;8.88;3.67;;;;;;;20.28;48.47;102164.63;5205547;28;20528;-41
2022/07/05 00:05:31;;;;;;;4.63;2.97;;;;;;;20.23;48.59;102167.88;5212295;28;21017;-40
2022/07/05 00:08:05;;;;;;;9.15;3.25;;;;;;;20.21;48.41;102191.34;5205086;28;20423;-40
2022/07/05 00:10:39;;;;;;;7.72;3.30;;;;;;;20.19;48.58;102166.59;5203776;28;20533;-40
2022/07/05 00:13:12;;;;;;;5.88;3.08;;;;;;;20.16;48.64;102161.59;5203685;28;20417;-41
2022/07/05 00:15:45;;;;;;;7.50;3.47;;;;;;;20.02;48.76;102146.28;5214383;28;20416;-48
2022/07/05 00:18:19;;;;;;;11.32;2.92;;;;;;;20.01;48.92;102158.03;5208078;28;20401;-40
2022/07/05 00:20:52;;;;;;;6.70;3.40;;;;;;;19.98;48.98;102153.03;5201184;28;20534;-45
2022/07/05 00:23:25;;;;;;;9.15;3.58;;;;;;;19.99;49.21;102165.41;5190901;28;20838;-40
2022/07/05 00:25:58;;;;;;;7.68;3.17;;;;;;;19.70;49.34;102118.72;5191296;28;21045;-41
2022/07/05 00:28:31;;;;;;;10.73;3.35;;;;;;;19.92;49.27;102159.94;5204450;28;20710;-39
2022/07/05 00:31:03;;;;;;;8.68;3.20;;;;;;;19.88;49.30;102163.13;5206281;28;20430;-43
2022/07/05 00:33:37;;;;;;;7.27;2.90;;;;;;;19.74;49.46;102145.97;5209687;28;20508;-40
2022/07/05 00:36:10;;;;;;;9.65;3.20;;;;;;;19.79;49.54;102157.84;5204498;28;20945;-40
2022/07/05 00:38:43;;;;;;;6.32;3.13;;;;;;;19.67;49.46;102153.09;5205071;28;20490;-39
2022/07/05 00:41:16;;;;;;;9.40;3.78;;;;;;;19.66;49.70;102160.25;5205360;28;20430;-39
2022/07/05 00:43:55;;;;;;;11.73;2.72;;;;;;;19.65;49.86;102169.31;5210014;28;20399;-48
2022/07/05 00:46:28;;;;;;;8.23;2.67;;;;;;;19.54;49.94;102153.59;5211563;28;20424;-40
2022/07/05 00:49:03;;;;;;;11.57;2.85;;;;;;;19.54;50.03;102156.28;5204581;28;20417;-43
2022/07/05 00:51:38;;;;;;;2.90;2.25;;;;;;;19.47;50.00;102158.00;5205450;28;20975;-40
2022/07/05 00:54:11;;;;;;;4.93;2.50;;;;;;;19.44;50.26;102169.91;5207593;28;20474;-45
2022/07/05 00:56:45;;;;;;;6.97;2.78;;;;;;;19.40;50.13;102165.09;5205656;28;20422;-40
2022/07/05 00:59:18;;;;;;;9.98;2.22;;;;;;;19.33;50.33;102164.97;5208420;28;20439;-39
2022/07/05 01:01:50;;;;;;;6.03;2.30;;;;;;;19.19;50.35;102153.13;5209024;28;20910;-40
2022/07/05 01:04:25;;;;;;;5.60;2.40;;;;;;;19.15;50.55;102145.63;5208683;28;20423;-41
2022/07/05 01:06:58;;;;;;;6.70;2.35;;;;;;;19.15;50.58;102151.81;5204887;28;20742;-43
2022/07/05 01:09:31;;;;;;;6.53;2.47;;;;;;;19.15;50.56;102157.19;5203493;28;20445;-39
2022/07/05 01:12:04;;;;;;;7.65;2.50;;;;;;;19.12;50.53;102168.22;5205594;28;20428;-44
2022/07/05 01:14:37;;;;;;;5.55;2.47;;;;;;;19.09;50.71;102165.91;5205250;28;20436;-40
2022/07/05 01:17:47;;;;;;;6.82;2.33;;;;;;;19.05;50.82;102168.09;5208683;28;20844;-41
2022/07/05 01:20:21;;;;;;;7.63;2.45;;;;;;;19.00;50.73;102164.25;5201168;28;20421;-41
2022/07/05 01:22:59;;;;;;;5.40;2.15;;;;;;;18.99;50.85;102160.75;5209961;28;20429;-40
2022/07/05 01:25:32;;;;;;;7.93;2.33;;;;;;;18.97;50.68;102156.56;5205665;28;20516;-43
2022/07/05 01:28:06;;;;;;;5.85;2.20;;;;;;;18.42;50.80;102072.59;5206937;28;20414;-42
2022/07/05 01:30:39;;;;;;;4.87;2.20;;;;;;;18.91;50.85;102162.63;5217011;28;20409;-52
2022/07/05 01:33:12;;;;;;;4.85;1.88;;;;;;;18.85;50.92;102151.59;5210935;28;20735;-41
2022/07/05 01:35:45;;;;;;;4.55;2.00;;;;;;;18.83;50.87;102153.63;5208700;28;20424;-43
2022/07/05 01:38:19;;;;;;;6.17;1.67;;;;;;;18.78;51.02;102158.66;5211929;28;20415;-43
2022/07/05 01:40:52;;;;;;;5.20;2.28;;;;;;;18.76;50.82;102157.97;5205040;28;20417;-40
2022/07/05 01:43:26;;;;;;;4.15;1.90;;;;;;;18.75;50.86;102167.00;5215365;28;20413;-50
2022/07/05 01:46:01;;;;;;;5.65;2.28;;;;;;;18.74;50.69;102157.31;5208566;28;20499;-41
2022/07/05 01:48:36;;;;;;;4.13;2.30;;;;;;;18.54;50.73;102137.25;5205503;28;20489;-40
2022/07/05 01:51:17;;;;;;;3.90;2.10;;;;;;;18.62;50.70;102150.63;5207341;28;20942;-46
2022/07/05 01:53:53;;;;;;;4.18;2.10;;;;;;;18.50;50.75;102139.44;5201292;28;20416;-44
2022/07/05 01:56:25;;;;;;;5.75;2.33;;;;;;;18.61;50.63;102154.28;5210229;28;20431;-47
2022/07/05 01:58:59;;;;;;;7.23;2.73;;;;;;;18.54;50.72;102150.63;5215309;28;20472;-41
2022/07/05 02:01:38;;;;;;;5.85;2.53;;;;;;;18.58;50.86;102155.50;5209903;28;20455;-41
2022/07/05 02:04:12;;;;;;;7.35;3.10;;;;;;;18.57;50.83;102158.31;5210198;28;20473;-42
2022/07/05 02:06:45;;;;;;;6.57;2.53;;;;;;;18.32;50.71;102120.09;5205502;28;21083;-40
2022/07/05 02:09:19;;;;;;;4.88;3.20;;;;;;;18.47;50.91;102152.34;5212454;28;20554;-40
2022/07/05 02:11:53;;;;;;;12.00;3.43;;;;;;;18.52;51.08;102158.00;5205344;28;20475;-44
2022/07/05 02:14:25;;;;;;;6.20;3.88;;;;;;;18.49;51.18;102155.66;5208313;28;20424;-39
2022/07/05 02:16:58;;;;;;;10.05;4.10;;;;;;;18.52;51.07;102160.66;5204512;28;20516;-40
2022/07/05 02:19:31;;;;;;;11.88;4.78;;;;;;;18.54;51.21;102164.03;5207471;28;20808;-40
2022/07/05 02:22:04;;;;;;;7.13;3.70;;;;;;;18.55;51.34;102169.22;5209876;28;20427;-39
2022/07/05 02:24:41;;;;;;;9.93;3.92;;;;;;;18.39;51.50;102140.63;5215183;28;20425;-39
2022/07/05 02:27:14;;;;;;;7.32;4.70;;;;;;;18.54;51.43;102153.31;5206021;28;20409;-40
2022/07/05 02:29:47;;;;;;;14.45;5.38;;;;;;;18.55;51.52;102161.19;5203670;28;20428;-51
2022/07/05 02:32:19;;;;;;;11.68;5.22;;;;;;;18.57;51.69;102158.31;5199789;28;20441;-40
2022/07/05 02:34:52;;;;;;;13.15;5.13;;;;;;;18.48;51.77;102141.44;5202905;28;20435;-44
2022/07/05 02:37:25;;;;;;;11.52;4.20;;;;;;;18.50;51.88;102141.28;5192306;28;20929;-39
2022/07/05 02:39:59;;;;;;;12.57;3.78;;;;;;;18.52;51.97;102150.81;5206311;28;20413;-44
2022/07/05 02:42:32;;;;;;;10.20;3.60;;;;;;;18.60;52.01;102152.63;5207426;28;20420;-45
2022/07/05 02:45:06;;;;;;;7.03;3.47;;;;;;;18.50;52.07;102142.13;5205236;28;20425;-39
2022/07/05 02:47:38;;;;;;;5.93;3.13;;;;;;;18.57;52.08;102147.63;5210165;28;22050;-40
2022/07/05 02:50:12;;;;;;;6.78;3.60;;;;;;;18.60;52.13;102158.00;5201533;28;20485;-40
2022/07/05 02:52:45;;;;;;;6.03;3.67;;;;;;;18.60;52.03;102161.50;5203306;28;20405;-40
2022/07/05 02:55:19;;;;;;;6.93;3.22;;;;;;;18.57;52.26;102150.31;5207374;28;20427;-40
2022/07/05 02:57:52;;;;;;;6.70;3.45;;;;;;;18.59;52.14;102161.69;5202501;28;20625;-42
2022/07/05 03:00:25;;;;;;;6.23;3.00;;;;;;;18.61;52.31;102165.84;5204785;28;20435;-40
2022/07/05 03:02:58;;;;;;;5.15;3.08;;;;;;;18.62;52.25;102161.34;5208804;28;20488;-45
2022/07/05 03:05:30;;;;;;;7.88;2.60;;;;;;;18.57;52.32;102158.31;5205341;28;20429;-44
2022/07/05 03:08:03;;;;;;;4.13;2.80;;;;;;;18.62;52.21;102161.34;5205774;28;20425;-40
2022/07/05 03:10:38;;;;;;;4.53;3.30;;;;;;;18.62;52.21;102167.53;5206547;28;20410;-39
2022/07/05 03:13:11;;;;;;;6.55;2.60;;;;;;;18.62;52.26;102164.84;5205021;28;20413;-40
2022/07/05 03:15:44;;;;;;;7.35;2.83;;;;;;;18.57;52.23;102155.66;5206064;28;20414;-44
2022/07/05 03:18:16;;;;;;;5.43;2.67;;;;;;;18.57;52.34;102159.16;5204280;28;20508;-41
2022/07/05 03:20:49;;;;;;;6.43;2.42;;;;;;;18.57;52.29;102158.31;5201070;28;20427;-44
2022/07/05 03:23:22;;;;;;;4.63;2.75;;;;;;;18.61;52.41;102167.69;5206961;28;20423;-55
2022/07/05 03:25:56;;;;;;;3.90;2.10;;;;;;;18.59;52.27;102167.03;5207169;28;20421;-50
2022/07/05 03:28:29;;;;;;;6.13;2.90;;;;;;;18.62;52.32;102177.41;5204561;28;20443;-40
2022/07/05 03:31:02;;;;;;;6.63;2.47;;;;;;;18.49;52.14;102161.00;5208210;28;20418;-41
2022/07/05 03:33:34;;;;;;;2.33;2.00;;;;;;;18.60;52.33;102174.88;5208207;28;20507;-42
2022/07/05 03:36:08;;;;;;;5.70;2.00;;;;;;;18.55;52.32;102166.53;5208704;28;20784;-48
2022/07/05 03:38:40;;;;;;;4.93;2.38;;;;;;;18.62;52.17;102182.75;5206335;28;20495;-40
2022/07/05 03:41:14;;;;;;;6.57;2.17;;;;;;;18.58;52.15;102176.03;5202512;28;20416;-44
2022/07/05 03:43:47;;;;;;;4.03;2.13;;;;;;;18.66;52.14;102184.06;5188361;28;20436;-41
2022/07/05 03:46:20;;;;;;;4.13;1.90;;;;;;;18.62;52.23;102172.88;5198389;28;20947;-39
2022/07/05 03:48:53;;;;;;;6.83;1.77;;;;;;;18.69;52.26;102183.72;5203981;28;20763;-40
2022/07/05 03:51:26;;;;;;;4.35;1.77;;;;;;;18.72;52.20;102180.72;5206298;28;20441;-40
2022/07/05 03:53:58;;;;;;;5.25;2.05;;;;;;;18.71;51.97;102181.72;5206304;28;20440;-44
2022/07/05 03:56:33;;;;;;;5.95;2.60;;;;;;;18.66;51.87;102173.38;5202853;28;20496;-40
2022/07/05 03:59:05;;;;;;;5.20;1.70;;;;;;;18.75;51.96;102185.75;5205358;28;20451;-41
2022/07/05 04:01:41;;;;;;;4.40;1.88;;;;;;;18.77;51.98;102194.47;5208796;28;20789;-40
2022/07/05 04:04:14;;;;;;;6.10;1.98;;;;;;;18.73;51.92;102190.44;5210859;28;20530;-41
2022/07/05 04:06:46;;;;;;;3.95;1.77;;;;;;;18.79;51.97;102184.41;5204106;28;20534;-40
2022/07/05 04:09:19;;;;;;;6.28;2.03;;;;;;;18.81;51.88;102185.06;5200378;28;20421;-40
2022/07/05 04:11:54;;;;;;;4.47;2.15;;;;;;;18.82;51.77;102188.56;5203048;28;20509;-41
2022/07/05 04:14:27;;;;;;;10.15;2.05;;;;;;;18.82;51.79;102184.06;5201996;28;20432;-41
2022/07/05 04:17:00;;;;;;;3.22;1.85;;;;;;;18.84;51.66;102187.41;5198897;28;20517;-41
2022/07/05 04:19:33;;;;;;;4.72;2.33;;;;;;;18.89;51.76;102185.06;5201573;28;20897;-42
2022/07/05 04:22:08;;;;;;;7.43;1.80;;;;;;;18.89;51.78;102185.06;5203909;28;20471;-42
2022/07/05 04:27:29;;;;;;;5.18;1.70;;;;;;;19.01;51.54;102187.34;5200147;28;20437;-39
2022/07/05 04:30:02;;;;;;;5.05;1.75;;;;;;;19.08;51.52;102201.72;5209923;28;20512;-40
2022/07/05 04:32:35;;;;;;;4.30;1.58;;;;;;;19.07;51.55;102192.00;5212506;28;20639;-39
2022/07/05 04:35:09;;;;;;;3.60;1.58;;;;;;;19.18;51.30;102199.69;5214023;28;20831;-38
2022/07/05 04:37:42;;;;;;;5.40;1.60;;;;;;;19.06;51.37;102176.97;5207516;28;20416;-40
2022/07/05 04:40:16;;;;;;;5.97;2.20;;;;;;;19.27;51.31;102193.28;5221200;28;20478;-38
2022/07/05 04:42:50;;;;;;;2.85;1.55;;;;;;;19.34;51.26;102199.59;5221164;28;20925;-42
2022/07/05 04:45:23;;;;;;;6.20;1.42;;;;;;;19.43;51.05;102199.56;5211807;28;20443;-42
2022/07/05 04:47:56;;;;;;;6.35;1.70;;;;;;;19.50;50.96;102203.22;5216712;28;20420;-40
2022/07/05 04:50:29;;;;;;;3.00;1.60;;;;;;;19.60;50.85;102203.81;5221956;28;20424;-41
2022/07/05 04:53:01;;;;;;;3.50;1.77;;;;;;;19.67;50.73;102204.00;5217494;28;20941;-40
2022/07/05 04:55:34;;;;;;;4.60;1.60;;;;;;;19.72;50.69;102201.59;5221325;28;20443;-40
2022/07/05 04:58:08;;;;;;;5.40;1.67;;;;;;;19.83;50.57;102208.44;5222579;28;20436;-39
2022/07/05 05:00:41;;;;;;;4.57;1.65;;;;;;;19.91;50.42;102200.31;5208215;28;20858;-39
2022/07/05 05:03:14;;;;;;;3.83;1.63;;;;;;;20.00;50.30;102202.75;5209792;28;20844;-40
2022/07/05 05:05:47;;;;;;;5.75;1.88;;;;;;;20.10;50.23;102205.22;5215340;28;20429;-39
2022/07/05 05:08:19;;;;;;;2.42;1.20;;;;;;;20.12;50.14;102192.44;5222552;28;20484;-43
2022/07/05 05:10:52;;;;;;;5.85;1.85;;;;;;;20.26;49.77;102196.19;5214972;28;20415;-41
2022/07/05 05:13:26;;;;;;;6.03;2.15;;;;;;;20.33;49.75;102188.25;5226286;28;20415;-39
2022/07/05 05:15:59;;;;;;;3.40;1.30;;;;;;;20.71;49.46;102197.97;5223869;28;20411;-40
2022/07/05 05:18:32;;;;;;;2.70;1.25;;;;;;;20.96;49.10;102190.47;5225910;28;20415;-42
2022/07/05 05:21:05;;;;;;;4.38;1.10;;;;;;;21.18;48.77;102215.59;5213811;28;20430;-40
2022/07/05 05:23:37;;;;;;;2.80;1.05;;;;;;;21.27;48.55;102213.59;5209096;28;20454;-40
2022/07/05 05:26:10;;;;;;;7.03;1.63;;;;;;;21.47;48.25;102211.22;5211176;28;20498;-40
2022/07/05 05:28:44;;;;;;;4.22;1.50;;;;;;;21.91;47.90;102207.56;5218947;28;20935;-44
2022/07/05 05:31:17;;;;;;;4.60;1.00;;;;;;;22.20;47.29;102205.78;5221840;28;20494;-43
2022/07/05 05:33:50;;;;;;;3.65;1.48;;;;;;;22.63;46.80;102213.78;5217947;28;20452;-42
2022/07/05 05:36:22;;;;;;;6.20;1.67;;;;;;;23.22;46.09;102224.13;5208490;28;20429;-40
2022/07/05 05:38:55;;;;;;;13.05;2.13;;;;;;;23.67;45.40;102213.72;5204772;28;20439;-40
2022/07/05 05:41:28;;;;;;;1.60;0.90;;;;;;;23.86;45.03;102225.63;5208109;28;20509;-41
2022/07/05 05:44:02;;;;;;;4.65;1.50;;;;;;;23.81;44.90;102228.09;5198600;28;20430;-41
2022/07/05 05:46:35;;;;;;;2.80;0.95;;;;;;;23.72;44.81;102230.13;5198684;28;20411;-44
2022/07/05 05:49:08;;;;;;;4.03;1.20;;;;;;;23.63;44.66;102242.09;5194299;28;20452;-44
2022/07/05 05:51:41;;;;;;;4.78;1.20;;;;;;;23.44;44.59;102239.16;5198373;28;20901;-41
2022/07/05 05:54:13;;;;;;;4.82;1.65;;;;;;;23.30;44.51;102236.59;5187657;28;20434;-41
2022/07/05 05:56:46;;;;;;;5.85;1.40;;;;;;;23.21;44.51;102242.16;5193717;28;20494;-41
2022/07/05 05:59:20;;;;;;;5.00;1.23;;;;;;;23.11;44.17;102236.31;5201190;28;20424;-41
2022/07/05 06:01:53;;;;;;;6.55;1.60;;;;;;;23.04;44.36;102221.13;5191614;28;20771;-40
2022/07/05 06:04:26;;;;;;;7.40;1.08;;;;;;;23.32;44.21;102245.31;5206893;28;20510;-45
2022/07/05 06:06:58;;;;;;;6.20;1.42;;;;;;;23.77;43.70;102238.47;5208259;28;20425;-44
2022/07/05 06:09:31;;;;;;;5.35;1.17;;;;;;;24.07;43.17;102238.13;5211913;28;20411;-43
2022/07/05 06:12:05;;;;;;;3.47;1.38;;;;;;;25.30;42.08;102238.44;5188810;28;20846;-49
2022/07/05 06:14:39;;;;;;;2.15;1.20;;;;;;;26.24;40.84;102246.91;5187408;28;20419;-42
2022/07/05 06:17:12;;;;;;;3.10;1.20;;;;;;;26.68;40.24;102235.88;5202197;28;20403;-41
2022/07/05 06:19:45;;;;;;;3.60;1.20;;;;;;;27.49;39.38;102255.66;5203645;28;20731;-42
2022/07/05 06:22:17;;;;;;;2.80;0.88;;;;;;;28.24;38.51;102243.53;5186023;28;20417;-42
2022/07/05 06:24:50;;;;;;;5.97;1.15;;;;;;;28.34;38.25;102237.50;5190561;28;20424;-42
2022/07/05 06:27:23;;;;;;;3.75;0.93;;;;;;;28.07;38.20;102246.09;5206274;28;20535;-40
2022/07/05 06:29:57;;;;;;;4.50;1.00;;;;;;;27.70;38.34;102242.66;5203830;28;20484;-42
2022/07/05 06:32:30;;;;;;;2.10;1.17;;;;;;;27.44;38.51;102250.09;5207014;28;20449;-42
2022/07/05 06:35:03;;;;;;;4.20;0.93;;;;;;;27.11;38.45;102240.44;5220458;28;20423;-45
2022/07/05 06:37:44;;;;;;;5.07;1.20;;;;;;;26.83;38.61;102253.69;5167699;28;20429;-49
2022/07/05 06:40:22;;;;;;;3.63;1.00;;;;;;;26.54;38.57;102260.63;5194096;28;20457;-42
2022/07/05 06:42:58;;;;;;;5.83;1.40;;;;;;;26.20;38.74;102260.88;5195428;28;20432;-42
2022/07/05 06:45:32;;;;;;;3.83;1.30;;;;;;;25.92;38.89;102257.72;5200866;28;20509;-53
2022/07/05 06:48:07;;;;;;;2.28;0.90;;;;;;;25.88;38.87;102267.31;5195110;28;20419;-42
2022/07/05 06:50:42;;;;;;;2.83;0.90;;;;;;;26.76;38.23;102258.31;5198218;28;20806;-46
2022/07/05 06:53:15;;;;;;;2.47;1.03;;;;;;;27.94;37.05;102277.00;5215148;28;20500;-42
2022/07/05 06:55:48;;;;;;;2.43;1.00;;;;;;;29.05;36.26;102260.13;5195495;28;20445;-43
2022/07/05 06:58:20;;;;;;;4.25;0.90;;;;;;;29.38;35.60;102259.47;5201765;28;20421;-45
2022/07/05 07:00:54;;;;;;;2.60;0.60;;;;;;;29.01;35.71;102259.78;5215902;28;20446;-43
2022/07/05 07:03:27;;;;;;;4.78;1.00;;;;;;;28.67;36.02;102272.31;5204663;28;20822;-45
2022/07/05 07:06:00;;;;;;;3.28;0.88;;;;;;;28.44;36.17;102271.25;5189084;28;20922;-49
2022/07/05 07:11:23;;;;;;;7.13;1.20;;;;;;;29.16;35.44;102267.44;5181641;28;20405;-43
2022/07/05 07:13:56;;;;;;;4.40;1.07;;;;;;;29.73;35.18;102270.28;5185854;28;20426;-45
2022/07/05 07:16:30;;;;;;;2.47;0.77;;;;;;;30.16;34.51;102279.72;5184736;28;20948;-45
2022/07/05 07:19:03;;;;;;;3.25;0.88;;;;;;;30.04;34.57;102273.53;5182597;28;20434;-45
2022/07/05 07:21:36;;;;;;;2.88;0.75;;;;;;;30.05;34.60;102269.75;5187690;28;20425;-45
2022/07/05 07:24:10;;;;;;;4.60;0.93;;;;;;;30.80;34.09;102257.63;5190558;28;20774;-42
2022/07/05 07:29:35;;;;;;;3.17;0.82;;;;;;;32.66;32.58;102264.78;5168412;28;20529;-46
2022/07/05 07:32:10;;;;;;;3.45;0.80;;;;;;;33.34;31.96;102253.91;5182317;28;20411;-44
2022/07/05 07:34:43;;;;;;;3.53;0.70;;;;;;;33.41;31.51;102271.72;5183894;28;20886;-43
2022/07/05 07:37:17;;;;;;;7.60;1.10;;;;;;;33.31;31.53;102271.69;5185812;28;20504;-49
2022/07/05 07:39:50;;;;;;;4.07;1.17;;;;;;;32.82;31.74;102275.53;5185262;28;20418;-49
2022/07/05 07:42:23;;;;;;;5.22;1.20;;;;;;;32.45;31.70;102289.22;5185096;28;20481;-44
2022/07/05 07:44:56;;;;;;;4.10;1.13;;;;;;;32.04;31.98;102294.34;5182677;28;20442;-45
2022/07/05 07:47:30;;;;;;;8.30;1.33;;;;;;;31.81;31.92;102289.19;5187034;28;20425;-46
2022/07/05 07:50:04;;;;;;;3.22;0.90;;;;;;;31.57;32.09;102278.53;5183256;28;20434;-48
2022/07/05 07:52:37;;;;;;;2.97;1.00;;;;;;;31.45;32.02;102283.31;5183730;28;20520;-47
2022/07/05 07:55:11;;;;;;;4.68;1.08;;;;;;;31.60;32.17;102275.28;5185321;28;20423;-48
2022/07/05 07:57:43;;;;;;;3.50;0.90;;;;;;;32.04;31.63;102288.88;5183687;28;20493;-45
2022/07/05 08:00:17;;;;;;;7.15;1.23;;;;;;;32.38;31.71;102291.34;5185524;28;20409;-44
2022/07/05 08:02:50;;;;;;;3.45;1.13;;;;;;;32.69;31.32;102292.41;5185471;28;20437;-45
2022/07/05 08:05:23;;;;;;;3.60;0.90;;;;;;;32.98;31.11;102284.66;5184624;28;20495;-48
2022/07/05 08:07:56;;;;;;;2.75;1.23;;;;;;;33.23;31.11;102294.09;5191163;28;20485;-46
2022/07/05 08:10:29;;;;;;;2.95;0.80;;;;;;;33.17;30.84;102292.44;5199451;28;20449;-43
2022/07/05 08:13:02;;;;;;;2.42;0.80;;;;;;;33.02;31.19;102290.47;5202503;28;20501;-47
2022/07/05 08:15:35;;;;;;;2.97;0.85;;;;;;;33.15;30.77;102297.38;5199046;28;20432;-45
2022/07/05 08:23:49;;;;;;;5.00;0.70;;;;;;;33.31;30.34;102290.84;5192479;28;20512;-45
2022/07/05 08:26:22;;;;;;;3.03;1.00;;;;;;;33.27;30.14;102281.53;5191841;28;20506;-46
2022/07/05 08:28:55;;;;;;;3.93;0.80;;;;;;;33.36;30.08;102296.34;5186566;28;20869;-46
2022/07/05 08:31:29;;;;;;;3.30;0.87;;;;;;;33.17;30.31;102293.28;5196000;28;20445;-43
2022/07/05 08:34:04;;;;;;;5.28;1.10;;;;;;;32.88;30.24;102309.22;5200945;28;20664;-44
2022/07/05 08:36:37;;;;;;;3.80;0.95;;;;;;;32.49;30.27;102308.69;5222607;28;20469;-44
2022/07/05 08:39:10;;;;;;;5.03;1.00;;;;;;;32.32;30.71;102297.88;5224861;28;20422;-47
2022/07/05 08:41:48;;;;;;;4.00;0.80;;;;;;;32.19;30.58;102299.13;5225987;28;20527;-49
2022/07/05 08:44:23;;;;;;;3.28;0.80;;;;;;;32.10;30.11;102295.22;5222786;28;20410;-44
2022/07/05 08:46:58;;;;;;;4.25;1.00;;;;;;;31.98;30.53;102305.47;5229957;28;20461;-47
2022/07/05 08:49:34;;;;;;;6.45;1.70;;;;;;;31.87;30.57;102307.28;5224562;28;20964;-48
2022/07/05 08:52:12;;;;;;;4.43;1.10;;;;;;;31.80;30.37;102306.63;5225718;28;20426;-48
2022/07/05 08:54:47;;;;;;;5.45;1.25;;;;;;;31.58;30.64;102315.69;5227209;28;20744;-50
2022/07/05 08:57:20;;;;;;;4.50;1.17;;;;;;;31.31;30.75;102315.63;5224156;28;20396;-40
2022/07/05 08:59:52;;;;;;;4.25;1.45;;;;;;;31.26;30.58;102312.81;5223964;28;20404;-44
2022/07/05 09:02:25;;;;;;;4.13;1.00;;;;;;;31.21;30.51;102310.81;5225973;28;20767;-44
2022/07/05 09:05:00;;;;;;;3.38;0.90;;;;;;;31.18;30.57;102311.31;5215133;28;20407;-46
2022/07/05 09:07:59;;;;;;;3.97;1.30;;;;;;;31.03;30.59;102313.84;5209760;28;20436;-46
2022/07/05 09:10:33;;;;;;;3.00;0.90;;;;;;;30.81;30.59;102316.53;5215114;28;20830;-51
2022/07/05 09:13:05;;;;;;;5.78;1.20;;;;;;;30.59;30.94;102323.81;5217462;28;20896;-42
2022/07/05 09:15:40;;;;;;;5.15;1.17;;;;;;;30.46;30.78;102311.34;5205922;28;20416;-43
2022/07/05 09:18:13;;;;;;;6.10;1.23;;;;;;;30.27;30.94;102297.94;5213081;28;20423;-43
2022/07/05 09:20:47;;;;;;;5.03;1.08;;;;;;;30.21;31.21;102318.00;5214692;28;20444;-46
2022/07/05 09:23:22;;;;;;;4.28;1.40;;;;;;;30.09;31.20;102336.28;5207125;28;20436;-44
2022/07/05 09:26:03;;;;;;;3.70;1.10;;;;;;;29.84;31.19;102332.00;5216374;28;20914;-44
2022/07/05 09:28:36;;;;;;;4.00;1.23;;;;;;;29.62;31.26;102331.03;5221883;28;20418;-44
2022/07/05 09:31:35;;;;;;;5.30;1.50;;;;;;;29.59;31.37;102331.47;5222706;28;20422;-44
2022/07/05 09:34:09;;;;;;;5.78;1.45;;;;;;;29.56;31.34;102312.91;5214012;28;20418;-45
2022/07/05 09:36:55;;;;;;;5.03;1.25;;;;;;;29.50;31.17;102327.47;5218438;28;20498;-61
2022/07/05 09:39:39;;;;;;;5.43;1.40;;;;;;;29.40;31.30;102333.53;5221877;28;20416;-45
2022/07/05 09:42:23;;;;;;;3.78;0.82;;;;;;;29.26;31.30;102332.97;5221918;28;20431;-43
2022/07/05 09:44:57;;;;;;;3.17;1.10;;;;;;;29.20;31.13;102339.34;5220068;28;20482;-44
2022/07/05 09:47:30;;;;;;;5.10;1.00;;;;;;;29.16;31.08;102338.19;5221313;28;20428;-44
2022/07/05 09:50:05;;;;;;;2.10;0.90;;;;;;;29.07;31.14;102345.06;5216540;28;20407;-47
2022/07/05 09:52:41;;;;;;;5.20;1.23;;;;;;;28.80;31.09;102310.13;5216918;28;20431;-48
2022/07/05 09:55:18;;;;;;;9.13;1.25;;;;;;;28.96;31.07;102339.34;5220215;28;20488;-47
2022/07/05 09:57:51;;;;;;;5.57;0.90;;;;;;;29.07;30.91;102340.44;5221039;28;20909;-48
2022/07/05 10:00:24;;;;;;;5.30;1.30;;;;;;;29.14;30.73;102349.31;5221798;28;20412;-46
2022/07/05 10:03:00;;;;;;;8.10;0.90;;;;;;;29.12;30.77;102348.72;5221186;28;20420;-42
2022/07/05 10:05:34;;;;;;;2.77;0.97;;;;;;;29.11;30.47;102357.09;5219822;28;20518;-47
2022/07/05 10:08:09;;;;;;;3.53;1.10;;;;;;;29.12;30.52;102347.91;5220514;28;20468;-44
2022/07/05 10:10:44;;;;;;;2.50;1.30;;;;;;;29.15;30.40;102352.88;5211962;28;20500;-50
2022/07/05 10:13:17;;;;;;;4.88;1.52;;;;;;;29.15;30.25;102350.16;5192102;28;20420;-52
2022/07/05 10:15:50;;;;;;;3.38;0.75;;;;;;;29.16;30.21;102359.94;5204872;28;20417;-41
2022/07/05 10:18:31;;;;;;;2.30;0.90;;;;;;;29.00;30.22;102347.03;5201915;28;20490;-47
2022/07/05 10:21:29;;;;;;;7.35;1.20;;;;;;;28.89;30.39;102354.94;5206796;28;20464;-48
2022/07/05 10:24:04;;;;;;;4.57;0.80;;;;;;;28.85;30.30;102353.75;5200476;28;20491;-45
2022/07/05 10:26:37;;;;;;;4.55;0.90;;;;;;;28.85;30.14;102353.75;5204854;28;20422;-45
2022/07/05 10:29:11;;;;;;;4.93;0.70;;;;;;;28.84;30.06;102363.00;5209259;28;22158;-44
2022/07/05 10:31:45;;;;;;;2.72;0.80;;;;;;;28.84;30.05;102357.56;5195324;28;20405;-44
2022/07/05 10:34:19;;;;;;;3.88;0.70;;;;;;;28.88;30.08;102352.47;5208992;28;20496;-46
2022/07/05 10:36:52;;;;;;;2.17;0.85;;;;;;;28.80;30.00;102353.63;5208913;28;20487;-49
2022/07/05 10:39:27;;;;;;;5.03;1.20;;;;;;;28.66;30.09;102354.94;5211176;28;20413;-44
2022/07/05 10:42:01;;;;;;;1.83;0.80;;;;;;;28.66;30.12;102357.66;5211646;28;20774;-46
2022/07/05 10:44:37;;;;;;;1.35;0.70;;;;;;;28.77;30.14;102370.44;5214398;28;20413;-44
2022/07/05 10:47:11;;;;;;;2.95;0.55;;;;;;;28.87;29.98;102357.09;5213111;28;20733;-47
2022/07/05 10:49:44;;;;;;;4.45;1.00;;;;;;;29.08;30.18;102363.03;5212781;28;20412;-49
2022/07/05 10:52:24;;;;;;;5.15;1.30;;;;;;;29.19;29.77;102370.34;5215698;28;20414;-42
2022/07/05 10:55:24;;;;;;;4.32;1.15;;;;;;;29.31;29.76;102371.19;5214813;28;20491;-43
2022/07/05 10:58:22;;;;;;;5.00;1.40;;;;;;;29.29;29.54;102376.03;5212320;28;20415;-42
2022/07/05 11:01:36;;;;;;;6.45;1.48;;;;;;;29.11;29.81;102381.59;5216829;28;20950;-45
2022/07/05 11:04:38;;;;;;;2.80;1.02;;;;;;;29.09;29.68;102360.06;5206039;28;20508;-44
2022/07/05 11:07:13;;;;;;;5.55;1.67;;;;;;;29.18;29.80;102374.16;5215367;28;24806;-46
2022/07/05 11:10:02;;;;;;;3.53;0.93;;;;;;;29.18;29.86;102355.94;5212343;28;20412;-42
2022/07/05 11:12:41;;;;;;;3.45;0.95;;;;;;;29.23;29.58;102344.31;5211799;28;20419;-43
2022/07/05 11:15:14;;;;;;;3.38;1.02;;;;;;;29.23;29.70;102371.53;5218267;28;20416;-43
2022/07/05 11:17:46;;;;;;;5.20;1.48;;;;;;;29.25;29.66;102374.84;5221583;28;20415;-51
2022/07/05 11:20:29;;;;;;;4.07;0.93;;;;;;;29.41;29.41;102368.66;5210867;28;20932;-43
2022/07/05 11:23:09;;;;;;;3.00;0.80;;;;;;;29.63;29.15;102370.78;5209163;28;20766;-43
2022/07/05 11:25:48;;;;;;;2.83;0.90;;;;;;;29.70;29.12;102352.44;5207687;28;20900;-44
2022/07/05 11:28:24;;;;;;;7.70;1.65;;;;;;;29.95;28.82;102362.16;5209860;28;20435;-42
2022/07/05 11:31:01;;;;;;;4.95;0.90;;;;;;;30.05;28.88;102367.81;5211232;28;20527;-45
2022/07/05 11:33:42;;;;;;;5.78;1.08;;;;;;;30.10;28.78;102368.75;5211415;28;20424;-49
2022/07/05 11:36:26;;;;;;;4.10;1.10;;;;;;;30.13;28.83;102364.69;5210627;28;20408;-47
2022/07/05 11:39:15;;;;;;;3.00;1.00;;;;;;;30.15;28.53;102370.72;5213717;28;20806;-48
2022/07/05 11:41:49;;;;;;;3.45;1.08;;;;;;;30.06;28.63;102380.38;5216889;28;20991;-44
2022/07/05 11:44:24;;;;;;;3.23;0.83;;;;;;;29.84;28.71;102372.03;5216983;28;20492;-45
2022/07/05 11:46:57;;;;;;;6.50;1.02;;;;;;;29.82;28.77;102369.56;5214970;28;20427;-43
2022/07/05 11:49:30;;;;;;;3.70;0.90;;;;;;;29.87;28.55;102366.94;5218731;28;20451;-45
2022/07/05 11:52:05;;;;;;;6.70;0.98;;;;;;;29.93;28.39;102367.03;5216046;28;20784;-43
2022/07/05 11:54:38;;;;;;;3.13;0.90;;;;;;;30.04;28.47;102377.91;5212436;28;20706;-47
2022/07/05 11:57:12;;;;;;;1.73;0.80;;;;;;;30.09;28.34;102374.44;5216423;28;21123;-50
2022/07/05 11:59:47;;;;;;;3.28;1.05;;;;;;;30.19;28.03;102368.34;5213673;28;20439;-45
2022/07/05 12:02:23;;;;;;;2.50;1.10;;;;;;;30.41;27.84;102380.22;5220373;28;20415;-41
2022/07/05 12:04:58;;;;;;;2.90;0.98;;;;;;;30.67;27.65;102367.84;5214505;28;20497;-48
2022/07/05 12:07:33;;;;;;;3.25;1.17;;;;;;;30.72;27.55;102370.69;5216546;28;20870;-44
2022/07/05 12:13:03;;;;;;;3.53;1.10;;;;;;;30.85;27.42;102376.91;5208577;28;20749;-44
2022/07/05 12:15:39;;;;;;;4.47;1.10;;;;;;;30.98;27.64;102390.19;5216630;28;20494;-46